sensor_id;sensor_type;location;lat;lon;timestamp;P1;durP1;ratioP1;P2;durP2;ratioP2
49177;SDS011;35016;55.674;37.468;2024-03-06T00:02:23;4.20;;;1.38;;
49177;SDS011;35016;55.674;37.468;2024-03-06T00:04:51;4.88;;;1.70;;
49177;SDS011;35016;55.674;37.468;2024-03-06T00:07:18;4.65;;;1.45;;
49177;SDS011;35016;55.674;37.468;2024-03-06T00:09:46;4.50;;;1.35;;
49177;SDS011;35016;55.674;37.468;2024-03-06T00:12:13;4.85;;;1.42;;
49177;SDS011;35016;55.674;37.468;2024-03-06T00:14:40;3.72;;;1.25;;
49177;SDS011;35016;55.674;37.468;2024-03-06T00:17:08;2.60;;;1.05;;
49177;SDS011;35016;55.674;37.468;2024-03-06T00:19:36;8.55;;;2.10;;
49177;SDS011;35016;55.674;37.468;2024-03-06T00:22:03;2.95;;;1.00;;
49177;SDS011;35016;55.674;37.468;2024-03-06T00:24:30;3.17;;;1.25;;
49177;SDS011;35016;55.674;37.468;2024-03-06T00:26:59;3.65;;;1.20;;
49177;SDS011;35016;55.674;37.468;2024-03-06T00:29:26;3.47;;;1.10;;
49177;SDS011;35016;55.674;37.468;2024-03-06T00:31:57;3.92;;;1.50;;
49177;SDS011;35016;55.674;37.468;2024-03-06T00:34:24;3.30;;;1.23;;
49177;SDS011;35016;55.674;37.468;2024-03-06T00:36:51;4.07;;;1.38;;
49177;SDS011;35016;55.674;37.468;2024-03-06T00:39:18;4.03;;;1.35;;
49177;SDS011;35016;55.674;37.468;2024-03-06T00:41:46;3.80;;;1.27;;
49177;SDS011;35016;55.674;37.468;2024-03-06T00:44:13;4.10;;;1.30;;
49177;SDS011;35016;55.674;37.468;2024-03-06T00:46:42;5.68;;;1.55;;
49177;SDS011;35016;55.674;37.468;2024-03-06T00:49:10;6.20;;;1.50;;
49177;SDS011;35016;55.674;37.468;2024-03-06T00:51:37;6.40;;;1.52;;
49177;SDS011;35016;55.674;37.468;2024-03-06T00:54:14;4.05;;;1.20;;
49177;SDS011;35016;55.674;37.468;2024-03-06T00:56:41;4.53;;;1.23;;
49177;SDS011;35016;55.674;37.468;2024-03-06T00:59:08;7.88;;;1.70;;
49177;SDS011;35016;55.674;37.468;2024-03-06T01:01:36;6.57;;;1.88;;
49177;SDS011;35016;55.674;37.468;2024-03-06T01:04:03;3.13;;;1.17;;
49177;SDS011;35016;55.674;37.468;2024-03-06T01:06:31;4.68;;;1.40;;
49177;SDS011;35016;55.674;37.468;2024-03-06T01:08:58;6.32;;;1.67;;
49177;SDS011;35016;55.674;37.468;2024-03-06T01:11:25;7.20;;;1.92;;
49177;SDS011;35016;55.674;37.468;2024-03-06T01:13:53;4.50;;;1.42;;
49177;SDS011;35016;55.674;37.468;2024-03-06T01:16:21;6.32;;;1.92;;
49177;SDS011;35016;55.674;37.468;2024-03-06T01:18:48;5.35;;;1.60;;
49177;SDS011;35016;55.674;37.468;2024-03-06T01:21:16;6.70;;;1.70;;
49177;SDS011;35016;55.674;37.468;2024-03-06T01:23:43;6.28;;;1.38;;
49177;SDS011;35016;55.674;37.468;2024-03-06T01:26:10;5.43;;;1.50;;
49177;SDS011;35016;55.674;37.468;2024-03-06T01:28:39;3.35;;;1.38;;
49177;SDS011;35016;55.674;37.468;2024-03-06T01:31:06;5.50;;;1.63;;
49177;SDS011;35016;55.674;37.468;2024-03-06T01:33:34;5.78;;;1.80;;
49177;SDS011;35016;55.674;37.468;2024-03-06T01:36:01;5.43;;;1.45;;
49177;SDS011;35016;55.674;37.468;2024-03-06T01:38:28;4.03;;;1.40;;
49177;SDS011;35016;55.674;37.468;2024-03-06T01:40:56;5.05;;;1.67;;
49177;SDS011;35016;55.674;37.468;2024-03-06T01:43:24;7.18;;;1.50;;
49177;SDS011;35016;55.674;37.468;2024-03-06T01:45:53;4.70;;;1.23;;
49177;SDS011;35016;55.674;37.468;2024-03-06T01:48:21;5.88;;;1.80;;
49177;SDS011;35016;55.674;37.468;2024-03-06T01:50:55;5.68;;;1.52;;
49177;SDS011;35016;55.674;37.468;2024-03-06T01:53:24;5.00;;;1.85;;
49177;SDS011;35016;55.674;37.468;2024-03-06T01:55:53;5.15;;;1.35;;
49177;SDS011;35016;55.674;37.468;2024-03-06T01:58:21;6.25;;;1.70;;
49177;SDS011;35016;55.674;37.468;2024-03-06T02:00:51;4.85;;;1.55;;
49177;SDS011;35016;55.674;37.468;2024-03-06T02:03:21;10.13;;;2.60;;
49177;SDS011;35016;55.674;37.468;2024-03-06T02:05:48;3.75;;;1.38;;
49177;SDS011;35016;55.674;37.468;2024-03-06T02:08:17;7.47;;;2.17;;
49177;SDS011;35016;55.674;37.468;2024-03-06T02:10:45;5.57;;;1.77;;
49177;SDS011;35016;55.674;37.468;2024-03-06T02:13:14;6.53;;;1.70;;
49177;SDS011;35016;55.674;37.468;2024-03-06T02:15:44;7.78;;;2.00;;
49177;SDS011;35016;55.674;37.468;2024-03-06T02:18:12;5.05;;;1.67;;
49177;SDS011;35016;55.674;37.468;2024-03-06T02:20:39;6.50;;;1.95;;
49177;SDS011;35016;55.674;37.468;2024-03-06T02:23:07;4.10;;;1.40;;
49177;SDS011;35016;55.674;37.468;2024-03-06T02:25:35;5.68;;;1.73;;
49177;SDS011;35016;55.674;37.468;2024-03-06T02:28:03;5.25;;;1.45;;
49177;SDS011;35016;55.674;37.468;2024-03-06T02:30:33;5.95;;;1.75;;
49177;SDS011;35016;55.674;37.468;2024-03-06T02:33:04;9.35;;;2.10;;
49177;SDS011;35016;55.674;37.468;2024-03-06T02:35:36;4.60;;;1.48;;
49177;SDS011;35016;55.674;37.468;2024-03-06T02:38:03;7.63;;;2.05;;
49177;SDS011;35016;55.674;37.468;2024-03-06T02:40:34;7.03;;;1.80;;
49177;SDS011;35016;55.674;37.468;2024-03-06T02:43:01;5.43;;;1.80;;
49177;SDS011;35016;55.674;37.468;2024-03-06T02:45:29;6.35;;;2.00;;
49177;SDS011;35016;55.674;37.468;2024-03-06T02:47:56;5.63;;;1.60;;
49177;SDS011;35016;55.674;37.468;2024-03-06T02:50:23;4.35;;;1.58;;
49177;SDS011;35016;55.674;37.468;2024-03-06T02:52:51;5.28;;;1.63;;
49177;SDS011;35016;55.674;37.468;2024-03-06T02:55:21;6.88;;;1.77;;
49177;SDS011;35016;55.674;37.468;2024-03-06T02:57:48;5.68;;;1.88;;
49177;SDS011;35016;55.674;37.468;2024-03-06T03:00:16;6.55;;;2.00;;
49177;SDS011;35016;55.674;37.468;2024-03-06T03:02:43;7.18;;;1.67;;
49177;SDS011;35016;55.674;37.468;2024-03-06T03:05:10;6.82;;;2.10;;
49177;SDS011;35016;55.674;37.468;2024-03-06T03:07:37;5.20;;;2.05;;
49177;SDS011;35016;55.674;37.468;2024-03-06T03:10:05;5.10;;;2.15;;
49177;SDS011;35016;55.674;37.468;2024-03-06T03:12:33;6.45;;;1.50;;
49177;SDS011;35016;55.674;37.468;2024-03-06T03:15:00;6.13;;;2.08;;
49177;SDS011;35016;55.674;37.468;2024-03-06T03:17:29;6.53;;;2.35;;
49177;SDS011;35016;55.674;37.468;2024-03-06T03:19:57;4.60;;;1.73;;
49177;SDS011;35016;55.674;37.468;2024-03-06T03:22:24;7.57;;;1.80;;
49177;SDS011;35016;55.674;37.468;2024-03-06T03:24:51;4.72;;;1.65;;
49177;SDS011;35016;55.674;37.468;2024-03-06T03:27:18;5.70;;;1.85;;
49177;SDS011;35016;55.674;37.468;2024-03-06T03:29:45;4.78;;;1.40;;
49177;SDS011;35016;55.674;37.468;2024-03-06T03:32:12;4.63;;;1.75;;
49177;SDS011;35016;55.674;37.468;2024-03-06T03:34:40;6.65;;;2.15;;
49177;SDS011;35016;55.674;37.468;2024-03-06T03:37:07;4.75;;;1.55;;
49177;SDS011;35016;55.674;37.468;2024-03-06T03:39:35;6.65;;;1.85;;
49177;SDS011;35016;55.674;37.468;2024-03-06T03:42:02;4.57;;;1.88;;
49177;SDS011;35016;55.674;37.468;2024-03-06T03:44:29;6.18;;;2.13;;
49177;SDS011;35016;55.674;37.468;2024-03-06T03:46:57;5.18;;;1.88;;
49177;SDS011;35016;55.674;37.468;2024-03-06T03:49:24;7.45;;;2.17;;
49177;SDS011;35016;55.674;37.468;2024-03-06T03:51:51;5.35;;;1.75;;
49177;SDS011;35016;55.674;37.468;2024-03-06T03:54:18;4.93;;;1.58;;
49177;SDS011;35016;55.674;37.468;2024-03-06T03:56:45;6.22;;;1.98;;
49177;SDS011;35016;55.674;37.468;2024-03-06T03:59:13;6.30;;;2.25;;
49177;SDS011;35016;55.674;37.468;2024-03-06T04:01:40;7.95;;;2.70;;
49177;SDS011;35016;55.674;37.468;2024-03-06T04:04:07;8.70;;;2.30;;
49177;SDS011;35016;55.674;37.468;2024-03-06T04:06:35;6.53;;;2.20;;
49177;SDS011;35016;55.674;37.468;2024-03-06T04:09:02;8.23;;;2.15;;
49177;SDS011;35016;55.674;37.468;2024-03-06T04:11:31;5.18;;;1.95;;
49177;SDS011;35016;55.674;37.468;2024-03-06T04:14:03;6.53;;;1.98;;
49177;SDS011;35016;55.674;37.468;2024-03-06T04:16:33;5.80;;;2.20;;
49177;SDS011;35016;55.674;37.468;2024-03-06T04:19:01;8.43;;;2.58;;
49177;SDS011;35016;55.674;37.468;2024-03-06T04:21:28;6.03;;;1.85;;
49177;SDS011;35016;55.674;37.468;2024-03-06T04:23:56;5.18;;;1.73;;
49177;SDS011;35016;55.674;37.468;2024-03-06T04:26:23;6.70;;;1.92;;
49177;SDS011;35016;55.674;37.468;2024-03-06T04:28:50;6.68;;;1.60;;
49177;SDS011;35016;55.674;37.468;2024-03-06T04:31:17;5.38;;;1.88;;
49177;SDS011;35016;55.674;37.468;2024-03-06T04:33:45;6.45;;;2.00;;
49177;SDS011;35016;55.674;37.468;2024-03-06T04:36:13;7.05;;;2.33;;
49177;SDS011;35016;55.674;37.468;2024-03-06T04:38:40;6.75;;;2.30;;
49177;SDS011;35016;55.674;37.468;2024-03-06T04:41:08;6.47;;;2.30;;
49177;SDS011;35016;55.674;37.468;2024-03-06T04:43:35;9.27;;;2.90;;
49177;SDS011;35016;55.674;37.468;2024-03-06T04:46:02;6.63;;;2.13;;
49177;SDS011;35016;55.674;37.468;2024-03-06T04:48:30;7.47;;;2.65;;
49177;SDS011;35016;55.674;37.468;2024-03-06T04:50:57;6.80;;;2.53;;
49177;SDS011;35016;55.674;37.468;2024-03-06T04:53:25;6.97;;;2.53;;
49177;SDS011;35016;55.674;37.468;2024-03-06T04:55:52;9.85;;;2.63;;
49177;SDS011;35016;55.674;37.468;2024-03-06T04:58:19;6.65;;;2.45;;
49177;SDS011;35016;55.674;37.468;2024-03-06T05:00:47;6.72;;;1.92;;
49177;SDS011;35016;55.674;37.468;2024-03-06T05:03:14;6.65;;;2.22;;
49177;SDS011;35016;55.674;37.468;2024-03-06T05:05:59;6.93;;;2.28;;
49177;SDS011;35016;55.674;37.468;2024-03-06T05:08:43;9.43;;;2.72;;
49177;SDS011;35016;55.674;37.468;2024-03-06T05:11:28;6.82;;;2.38;;
49177;SDS011;35016;55.674;37.468;2024-03-06T05:14:13;9.25;;;2.70;;
49177;SDS011;35016;55.674;37.468;2024-03-06T05:16:58;8.27;;;2.47;;
49177;SDS011;35016;55.674;37.468;2024-03-06T05:19:43;6.18;;;1.83;;
49177;SDS011;35016;55.674;37.468;2024-03-06T05:22:30;6.85;;;1.88;;
49177;SDS011;35016;55.674;37.468;2024-03-06T05:25:14;8.38;;;2.40;;
49177;SDS011;35016;55.674;37.468;2024-03-06T05:27:59;6.50;;;1.90;;
49177;SDS011;35016;55.674;37.468;2024-03-06T05:30:43;7.35;;;2.20;;
49177;SDS011;35016;55.674;37.468;2024-03-06T05:33:35;7.75;;;2.45;;
49177;SDS011;35016;55.674;37.468;2024-03-06T05:36:19;8.57;;;2.20;;
49177;SDS011;35016;55.674;37.468;2024-03-06T05:39:04;14.88;;;2.88;;
49177;SDS011;35016;55.674;37.468;2024-03-06T05:42:02;6.90;;;2.13;;
49177;SDS011;35016;55.674;37.468;2024-03-06T05:44:48;7.70;;;2.45;;
49177;SDS011;35016;55.674;37.468;2024-03-06T05:47:34;11.20;;;2.38;;
49177;SDS011;35016;55.674;37.468;2024-03-06T05:50:19;6.57;;;2.50;;
49177;SDS011;35016;55.674;37.468;2024-03-06T05:55:48;12.43;;;2.28;;
49177;SDS011;35016;55.674;37.468;2024-03-06T05:58:32;6.80;;;2.45;;
49177;SDS011;35016;55.674;37.468;2024-03-06T06:01:01;5.93;;;2.05;;
49177;SDS011;35016;55.674;37.468;2024-03-06T06:03:29;8.48;;;2.35;;
49177;SDS011;35016;55.674;37.468;2024-03-06T06:05:56;8.18;;;2.60;;
49177;SDS011;35016;55.674;37.468;2024-03-06T06:08:25;8.20;;;2.75;;
49177;SDS011;35016;55.674;37.468;2024-03-06T06:10:52;6.35;;;2.10;;
49177;SDS011;35016;55.674;37.468;2024-03-06T06:13:20;6.75;;;2.35;;
49177;SDS011;35016;55.674;37.468;2024-03-06T06:15:48;9.35;;;2.92;;
49177;SDS011;35016;55.674;37.468;2024-03-06T06:18:15;4.75;;;1.98;;
49177;SDS011;35016;55.674;37.468;2024-03-06T06:20:42;14.07;;;3.33;;
49177;SDS011;35016;55.674;37.468;2024-03-06T06:23:09;6.13;;;2.00;;
49177;SDS011;35016;55.674;37.468;2024-03-06T06:25:36;8.15;;;2.92;;
49177;SDS011;35016;55.674;37.468;2024-03-06T06:28:03;7.50;;;2.90;;
49177;SDS011;35016;55.674;37.468;2024-03-06T06:30:31;10.80;;;3.50;;
49177;SDS011;35016;55.674;37.468;2024-03-06T06:32:58;6.28;;;2.65;;
49177;SDS011;35016;55.674;37.468;2024-03-06T06:35:26;9.98;;;3.20;;
49177;SDS011;35016;55.674;37.468;2024-03-06T06:37:54;8.35;;;2.80;;
49177;SDS011;35016;55.674;37.468;2024-03-06T06:40:21;7.32;;;2.67;;
49177;SDS011;35016;55.674;37.468;2024-03-06T06:42:49;10.77;;;2.83;;
49177;SDS011;35016;55.674;37.468;2024-03-06T06:45:17;9.30;;;2.72;;
49177;SDS011;35016;55.674;37.468;2024-03-06T06:47:45;8.00;;;2.75;;
49177;SDS011;35016;55.674;37.468;2024-03-06T06:50:13;6.97;;;2.78;;
49177;SDS011;35016;55.674;37.468;2024-03-06T06:52:41;7.38;;;2.65;;
49177;SDS011;35016;55.674;37.468;2024-03-06T06:55:08;10.50;;;2.95;;
49177;SDS011;35016;55.674;37.468;2024-03-06T06:57:38;6.70;;;2.15;;
49177;SDS011;35016;55.674;37.468;2024-03-06T07:00:05;9.45;;;3.00;;
49177;SDS011;35016;55.674;37.468;2024-03-06T07:02:38;8.15;;;2.10;;
49177;SDS011;35016;55.674;37.468;2024-03-06T07:05:06;8.98;;;2.65;;
49177;SDS011;35016;55.674;37.468;2024-03-06T07:07:35;14.90;;;2.65;;
49177;SDS011;35016;55.674;37.468;2024-03-06T07:10:02;8.93;;;3.03;;
49177;SDS011;35016;55.674;37.468;2024-03-06T07:12:30;7.25;;;2.50;;
49177;SDS011;35016;55.674;37.468;2024-03-06T07:14:57;7.30;;;2.30;;
49177;SDS011;35016;55.674;37.468;2024-03-06T07:17:32;7.68;;;2.45;;
49177;SDS011;35016;55.674;37.468;2024-03-06T07:19:59;7.10;;;2.55;;
49177;SDS011;35016;55.674;37.468;2024-03-06T07:22:29;9.18;;;2.60;;
49177;SDS011;35016;55.674;37.468;2024-03-06T07:24:57;10.63;;;2.15;;
49177;SDS011;35016;55.674;37.468;2024-03-06T07:27:24;7.72;;;2.53;;
49177;SDS011;35016;55.674;37.468;2024-03-06T07:29:51;9.27;;;2.17;;
49177;SDS011;35016;55.674;37.468;2024-03-06T07:32:18;7.35;;;2.28;;
49177;SDS011;35016;55.674;37.468;2024-03-06T07:34:45;5.95;;;1.95;;
49177;SDS011;35016;55.674;37.468;2024-03-06T07:37:13;6.85;;;2.17;;
49177;SDS011;35016;55.674;37.468;2024-03-06T07:39:41;6.57;;;2.42;;
49177;SDS011;35016;55.674;37.468;2024-03-06T07:42:08;5.40;;;2.00;;
49177;SDS011;35016;55.674;37.468;2024-03-06T07:44:37;5.95;;;1.85;;
49177;SDS011;35016;55.674;37.468;2024-03-06T07:47:04;8.68;;;1.88;;
49177;SDS011;35016;55.674;37.468;2024-03-06T07:49:31;6.55;;;2.53;;
49177;SDS011;35016;55.674;37.468;2024-03-06T07:52:01;3.97;;;1.58;;
49177;SDS011;35016;55.674;37.468;2024-03-06T07:54:29;9.07;;;2.40;;
49177;SDS011;35016;55.674;37.468;2024-03-06T07:56:56;7.50;;;2.42;;
49177;SDS011;35016;55.674;37.468;2024-03-06T07:59:23;6.07;;;2.00;;
49177;SDS011;35016;55.674;37.468;2024-03-06T08:01:55;7.10;;;2.55;;
49177;SDS011;35016;55.674;37.468;2024-03-06T08:04:22;8.50;;;2.63;;
49177;SDS011;35016;55.674;37.468;2024-03-06T08:06:58;4.78;;;1.58;;
49177;SDS011;35016;55.674;37.468;2024-03-06T08:09:38;8.35;;;2.97;;
49177;SDS011;35016;55.674;37.468;2024-03-06T08:12:05;6.90;;;2.30;;
49177;SDS011;35016;55.674;37.468;2024-03-06T08:14:35;5.28;;;2.28;;
49177;SDS011;35016;55.674;37.468;2024-03-06T08:17:03;6.80;;;2.58;;
49177;SDS011;35016;55.674;37.468;2024-03-06T08:19:34;9.40;;;3.40;;
49177;SDS011;35016;55.674;37.468;2024-03-06T08:22:06;13.40;;;3.25;;
49177;SDS011;35016;55.674;37.468;2024-03-06T08:24:35;11.20;;;2.60;;
49177;SDS011;35016;55.674;37.468;2024-03-06T08:27:02;8.85;;;3.17;;
49177;SDS011;35016;55.674;37.468;2024-03-06T08:29:33;5.63;;;2.22;;
49177;SDS011;35016;55.674;37.468;2024-03-06T08:32:02;7.72;;;2.80;;
49177;SDS011;35016;55.674;37.468;2024-03-06T08:34:37;6.53;;;2.40;;
49177;SDS011;35016;55.674;37.468;2024-03-06T08:37:08;11.20;;;2.50;;
49177;SDS011;35016;55.674;37.468;2024-03-06T08:39:40;8.82;;;3.10;;
49177;SDS011;35016;55.674;37.468;2024-03-06T08:42:07;10.43;;;2.97;;
49177;SDS011;35016;55.674;37.468;2024-03-06T08:44:52;7.80;;;2.53;;
49177;SDS011;35016;55.674;37.468;2024-03-06T08:47:20;9.35;;;2.67;;
49177;SDS011;35016;55.674;37.468;2024-03-06T08:49:48;7.05;;;3.03;;
49177;SDS011;35016;55.674;37.468;2024-03-06T08:52:17;6.90;;;2.28;;
49177;SDS011;35016;55.674;37.468;2024-03-06T08:54:52;6.57;;;2.17;;
49177;SDS011;35016;55.674;37.468;2024-03-06T08:57:20;6.25;;;2.53;;
49177;SDS011;35016;55.674;37.468;2024-03-06T08:59:49;7.00;;;2.42;;
49177;SDS011;35016;55.674;37.468;2024-03-06T09:02:19;7.72;;;2.35;;
49177;SDS011;35016;55.674;37.468;2024-03-06T09:04:46;10.30;;;2.95;;
49177;SDS011;35016;55.674;37.468;2024-03-06T09:07:18;6.63;;;2.38;;
49177;SDS011;35016;55.674;37.468;2024-03-06T09:09:46;8.38;;;2.50;;
49177;SDS011;35016;55.674;37.468;2024-03-06T09:12:16;9.32;;;2.30;;
49177;SDS011;35016;55.674;37.468;2024-03-06T09:14:43;8.95;;;3.53;;
49177;SDS011;35016;55.674;37.468;2024-03-06T09:17:21;6.32;;;1.80;;
49177;SDS011;35016;55.674;37.468;2024-03-06T09:19:50;8.68;;;2.95;;
49177;SDS011;35016;55.674;37.468;2024-03-06T09:22:34;7.07;;;2.10;;
49177;SDS011;35016;55.674;37.468;2024-03-06T09:25:01;6.32;;;2.42;;
49177;SDS011;35016;55.674;37.468;2024-03-06T09:27:29;4.85;;;1.30;;
49177;SDS011;35016;55.674;37.468;2024-03-06T09:30:04;5.20;;;1.75;;
49177;SDS011;35016;55.674;37.468;2024-03-06T09:32:33;4.57;;;1.55;;
49177;SDS011;35016;55.674;37.468;2024-03-06T09:35:00;5.97;;;1.70;;
49177;SDS011;35016;55.674;37.468;2024-03-06T09:37:29;5.53;;;2.03;;
49177;SDS011;35016;55.674;37.468;2024-03-06T09:39:57;6.40;;;2.00;;
49177;SDS011;35016;55.674;37.468;2024-03-06T09:42:30;7.25;;;2.15;;
49177;SDS011;35016;55.674;37.468;2024-03-06T09:48:45;6.65;;;1.52;;
49177;SDS011;35016;55.674;37.468;2024-03-06T10:05:41;5.68;;;1.75;;
49177;SDS011;35016;55.674;37.468;2024-03-06T10:08:22;4.43;;;1.70;;
49177;SDS011;35016;55.674;37.468;2024-03-06T10:11:00;7.25;;;1.85;;
49177;SDS011;35016;55.674;37.468;2024-03-06T10:13:28;4.65;;;1.80;;
49177;SDS011;35016;55.674;37.468;2024-03-06T10:15:57;4.72;;;1.50;;
49177;SDS011;35016;55.674;37.468;2024-03-06T10:18:28;5.60;;;1.92;;
49177;SDS011;35016;55.674;37.468;2024-03-06T10:20:56;4.60;;;1.50;;
49177;SDS011;35016;55.674;37.468;2024-03-06T10:23:24;5.47;;;1.88;;
49177;SDS011;35016;55.674;37.468;2024-03-06T10:25:51;6.45;;;1.88;;
49177;SDS011;35016;55.674;37.468;2024-03-06T10:28:19;5.13;;;1.75;;
49177;SDS011;35016;55.674;37.468;2024-03-06T10:30:47;6.88;;;1.95;;
49177;SDS011;35016;55.674;37.468;2024-03-06T10:33:15;7.40;;;1.65;;
49177;SDS011;35016;55.674;37.468;2024-03-06T10:35:46;3.95;;;1.40;;
49177;SDS011;35016;55.674;37.468;2024-03-06T10:38:19;2.78;;;1.15;;
49177;SDS011;35016;55.674;37.468;2024-03-06T10:40:48;6.45;;;1.67;;
49177;SDS011;35016;55.674;37.468;2024-03-06T10:43:19;3.80;;;1.33;;
49177;SDS011;35016;55.674;37.468;2024-03-06T10:45:55;7.28;;;2.45;;
49177;SDS011;35016;55.674;37.468;2024-03-06T10:48:32;6.20;;;2.55;;
49177;SDS011;35016;55.674;37.468;2024-03-06T10:51:03;6.43;;;1.98;;
49177;SDS011;35016;55.674;37.468;2024-03-06T10:53:32;9.50;;;4.43;;
49177;SDS011;35016;55.674;37.468;2024-03-06T10:56:02;8.25;;;2.38;;
49177;SDS011;35016;55.674;37.468;2024-03-06T10:58:33;7.32;;;2.38;;
49177;SDS011;35016;55.674;37.468;2024-03-06T11:01:02;7.93;;;2.58;;
49177;SDS011;35016;55.674;37.468;2024-03-06T11:03:30;6.13;;;2.13;;
49177;SDS011;35016;55.674;37.468;2024-03-06T11:05:58;8.57;;;2.58;;
49177;SDS011;35016;55.674;37.468;2024-03-06T11:08:30;7.07;;;2.03;;
49177;SDS011;35016;55.674;37.468;2024-03-06T11:11:19;6.13;;;2.20;;
49177;SDS011;35016;55.674;37.468;2024-03-06T11:13:50;9.48;;;2.65;;
49177;SDS011;35016;55.674;37.468;2024-03-06T11:16:28;5.82;;;1.80;;
49177;SDS011;35016;55.674;37.468;2024-03-06T11:19:07;6.78;;;1.75;;
49177;SDS011;35016;55.674;37.468;2024-03-06T11:21:45;5.45;;;1.80;;
49177;SDS011;35016;55.674;37.468;2024-03-06T11:26:47;8.10;;;1.85;;
49177;SDS011;35016;55.674;37.468;2024-03-06T11:29:23;5.95;;;1.58;;
49177;SDS011;35016;55.674;37.468;2024-03-06T11:32:00;6.28;;;2.10;;
49177;SDS011;35016;55.674;37.468;2024-03-06T11:34:29;6.40;;;1.92;;
49177;SDS011;35016;55.674;37.468;2024-03-06T11:36:57;8.32;;;2.05;;
49177;SDS011;35016;55.674;37.468;2024-03-06T11:39:28;9.05;;;2.47;;
49177;SDS011;35016;55.674;37.468;2024-03-06T11:41:57;6.60;;;2.05;;
49177;SDS011;35016;55.674;37.468;2024-03-06T11:44:24;4.93;;;1.75;;
49177;SDS011;35016;55.674;37.468;2024-03-06T11:46:58;6.00;;;1.65;;
49177;SDS011;35016;55.674;37.468;2024-03-06T11:49:28;5.80;;;2.10;;
49177;SDS011;35016;55.674;37.468;2024-03-06T11:51:59;5.00;;;1.63;;
49177;SDS011;35016;55.674;37.468;2024-03-06T11:54:37;6.65;;;2.30;;
49177;SDS011;35016;55.674;37.468;2024-03-06T11:57:04;5.05;;;1.30;;
49177;SDS011;35016;55.674;37.468;2024-03-06T11:59:33;5.53;;;1.60;;
49177;SDS011;35016;55.674;37.468;2024-03-06T12:02:03;8.35;;;1.98;;
49177;SDS011;35016;55.674;37.468;2024-03-06T12:04:33;5.93;;;1.85;;
49177;SDS011;35016;55.674;37.468;2024-03-06T12:07:03;8.38;;;2.00;;
49177;SDS011;35016;55.674;37.468;2024-03-06T12:09:35;6.97;;;2.45;;
49177;SDS011;35016;55.674;37.468;2024-03-06T12:12:09;8.73;;;2.88;;
49177;SDS011;35016;55.674;37.468;2024-03-06T12:14:38;8.60;;;2.70;;
49177;SDS011;35016;55.674;37.468;2024-03-06T12:17:11;6.32;;;2.08;;
49177;SDS011;35016;55.674;37.468;2024-03-06T12:19:45;8.93;;;2.30;;
49177;SDS011;35016;55.674;37.468;2024-03-06T12:22:13;8.38;;;1.98;;
49177;SDS011;35016;55.674;37.468;2024-03-06T12:24:42;7.20;;;2.35;;
49177;SDS011;35016;55.674;37.468;2024-03-06T12:27:09;8.45;;;2.20;;
49177;SDS011;35016;55.674;37.468;2024-03-06T12:29:37;7.43;;;1.75;;
49177;SDS011;35016;55.674;37.468;2024-03-06T12:32:15;5.20;;;1.90;;
49177;SDS011;35016;55.674;37.468;2024-03-06T12:34:56;8.10;;;2.20;;
49177;SDS011;35016;55.674;37.468;2024-03-06T12:37:29;6.13;;;2.72;;
49177;SDS011;35016;55.674;37.468;2024-03-06T12:40:02;6.13;;;1.88;;
49177;SDS011;35016;55.674;37.468;2024-03-06T12:42:38;6.93;;;2.45;;
49177;SDS011;35016;55.674;37.468;2024-03-06T12:45:05;8.00;;;2.28;;
49177;SDS011;35016;55.674;37.468;2024-03-06T12:47:33;8.55;;;2.30;;
49177;SDS011;35016;55.674;37.468;2024-03-06T12:50:01;6.57;;;2.80;;
49177;SDS011;35016;55.674;37.468;2024-03-06T12:52:29;6.57;;;2.15;;
49177;SDS011;35016;55.674;37.468;2024-03-06T12:54:56;7.68;;;2.42;;
49177;SDS011;35016;55.674;37.468;2024-03-06T12:57:23;9.40;;;2.35;;
49177;SDS011;35016;55.674;37.468;2024-03-06T12:59:51;8.40;;;3.03;;
49177;SDS011;35016;55.674;37.468;2024-03-06T13:02:18;5.95;;;2.17;;
49177;SDS011;35016;55.674;37.468;2024-03-06T13:04:45;6.57;;;2.28;;
49177;SDS011;35016;55.674;37.468;2024-03-06T13:07:12;6.90;;;2.85;;
49177;SDS011;35016;55.674;37.468;2024-03-06T13:09:41;6.95;;;2.85;;
49177;SDS011;35016;55.674;37.468;2024-03-06T13:12:08;8.95;;;2.78;;
49177;SDS011;35016;55.674;37.468;2024-03-06T13:14:37;8.45;;;3.05;;
49177;SDS011;35016;55.674;37.468;2024-03-06T13:17:04;12.20;;;4.43;;
49177;SDS011;35016;55.674;37.468;2024-03-06T13:19:33;11.70;;;3.80;;
49177;SDS011;35016;55.674;37.468;2024-03-06T13:22:00;11.38;;;2.92;;
49177;SDS011;35016;55.674;37.468;2024-03-06T13:24:31;7.13;;;2.45;;
49177;SDS011;35016;55.674;37.468;2024-03-06T13:26:58;8.50;;;3.03;;
49177;SDS011;35016;55.674;37.468;2024-03-06T13:29:26;7.30;;;3.35;;
49177;SDS011;35016;55.674;37.468;2024-03-06T13:31:53;9.07;;;3.10;;
49177;SDS011;35016;55.674;37.468;2024-03-06T13:34:23;6.38;;;2.15;;
49177;SDS011;35016;55.674;37.468;2024-03-06T13:36:50;9.35;;;2.53;;
49177;SDS011;35016;55.674;37.468;2024-03-06T13:39:17;7.32;;;3.10;;
49177;SDS011;35016;55.674;37.468;2024-03-06T13:41:44;8.50;;;2.35;;
49177;SDS011;35016;55.674;37.468;2024-03-06T13:44:11;7.07;;;2.40;;
49177;SDS011;35016;55.674;37.468;2024-03-06T13:46:39;8.02;;;2.30;;
49177;SDS011;35016;55.674;37.468;2024-03-06T13:49:33;6.15;;;1.80;;
49177;SDS011;35016;55.674;37.468;2024-03-06T13:52:07;6.43;;;2.50;;
49177;SDS011;35016;55.674;37.468;2024-03-06T13:54:37;5.85;;;1.65;;
49177;SDS011;35016;55.674;37.468;2024-03-06T13:57:09;7.10;;;2.08;;
49177;SDS011;35016;55.674;37.468;2024-03-06T13:59:37;5.50;;;1.90;;
49177;SDS011;35016;55.674;37.468;2024-03-06T14:02:05;8.30;;;1.52;;
49177;SDS011;35016;55.674;37.468;2024-03-06T14:04:33;6.55;;;2.38;;
49177;SDS011;35016;55.674;37.468;2024-03-06T14:07:01;7.22;;;2.17;;
49177;SDS011;35016;55.674;37.468;2024-03-06T14:09:28;4.97;;;1.70;;
49177;SDS011;35016;55.674;37.468;2024-03-06T14:11:55;5.22;;;2.00;;
49177;SDS011;35016;55.674;37.468;2024-03-06T14:14:23;7.03;;;2.50;;
49177;SDS011;35016;55.674;37.468;2024-03-06T14:16:50;7.00;;;1.65;;
49177;SDS011;35016;55.674;37.468;2024-03-06T14:19:17;4.63;;;1.42;;
49177;SDS011;35016;55.674;37.468;2024-03-06T14:21:45;5.40;;;1.27;;
49177;SDS011;35016;55.674;37.468;2024-03-06T14:24:14;5.55;;;1.63;;
49177;SDS011;35016;55.674;37.468;2024-03-06T14:26:41;4.95;;;1.42;;
49177;SDS011;35016;55.674;37.468;2024-03-06T14:29:09;4.25;;;1.58;;
49177;SDS011;35016;55.674;37.468;2024-03-06T14:31:36;2.90;;;1.27;;
49177;SDS011;35016;55.674;37.468;2024-03-06T14:34:03;4.93;;;1.67;;
49177;SDS011;35016;55.674;37.468;2024-03-06T14:36:33;6.55;;;1.23;;
49177;SDS011;35016;55.674;37.468;2024-03-06T14:39:01;4.28;;;1.33;;
49177;SDS011;35016;55.674;37.468;2024-03-06T14:41:29;4.22;;;1.30;;
49177;SDS011;35016;55.674;37.468;2024-03-06T14:43:57;5.65;;;1.45;;
49177;SDS011;35016;55.674;37.468;2024-03-06T14:46:24;5.35;;;1.25;;
49177;SDS011;35016;55.674;37.468;2024-03-06T14:48:51;8.70;;;1.55;;
49177;SDS011;35016;55.674;37.468;2024-03-06T14:51:18;5.22;;;1.20;;
49177;SDS011;35016;55.674;37.468;2024-03-06T14:53:46;5.35;;;1.40;;
49177;SDS011;35016;55.674;37.468;2024-03-06T14:56:13;9.65;;;2.05;;
49177;SDS011;35016;55.674;37.468;2024-03-06T14:58:40;4.18;;;1.17;;
49177;SDS011;35016;55.674;37.468;2024-03-06T15:01:08;5.63;;;1.42;;
49177;SDS011;35016;55.674;37.468;2024-03-06T15:03:35;5.85;;;1.83;;
49177;SDS011;35016;55.674;37.468;2024-03-06T15:06:03;4.70;;;1.20;;
49177;SDS011;35016;55.674;37.468;2024-03-06T15:08:30;5.05;;;1.67;;
49177;SDS011;35016;55.674;37.468;2024-03-06T15:10:57;7.13;;;1.52;;
49177;SDS011;35016;55.674;37.468;2024-03-06T15:13:24;4.95;;;1.63;;